Wetterdaten: Woche 30.07.07 - 05.08.07 (KW31)
Datum Zeit Temperatur Luftfeuchte Luftdruck Niederschlag Wind Richtung Sonnenschein Solar Taupunkt Windchill Windben
30.07.2007 00:00 15.3 C 97 % 1013.7 hPa 1.0 l/m 3.3 km/h (1 Bft) W 0.00 h 0 W/m 14.8 C 15.3 C 5.8 km/h (2 Bft)
30.07.2007 01:00 15.1 C 97 % 1013.7 hPa 1.4 l/m 4.7 km/h (1 Bft) W 0.00 h 0 W/m 14.7 C 15.1 C 7.8 km/h (2 Bft)
30.07.2007 02:00 14.2 C 97 % 1014.3 hPa 2.0 l/m 7.8 km/h (2 Bft) W 0.00 h 0 W/m 13.7 C 14.2 C 11.8 km/h (2 Bft)
30.07.2007 03:00 14.2 C 98 % 1015.1 hPa 1.6 l/m 3.0 km/h (1 Bft) NW 0.00 h 0 W/m 13.9 C 14.2 C 5.4 km/h (1 Bft)
30.07.2007 04:00 13.4 C 98 % 1016.0 hPa 0.0 l/m 1.5 km/h (1 Bft) NW 0.00 h 0 W/m 13.0 C 13.4 C 3.1 km/h (1 Bft)
30.07.2007 05:00 12.9 C 93 % 1016.7 hPa 0.0 l/m 1.4 km/h (1 Bft) SO 0.00 h 0 W/m 11.8 C 12.9 C 2.6 km/h (1 Bft)
30.07.2007 06:00 11.7 C 98 % 1017.1 hPa 0.0 l/m 0.4 km/h (0 Bft) SO 0.00 h 19 W/m 11.3 C 11.7 C 0.9 km/h (0 Bft)
30.07.2007 07:00 12.1 C 97 % 1018.0 hPa 0.0 l/m 2.0 km/h (1 Bft) SO 0.47 h 118 W/m 11.7 C 12.1 C 3.3 km/h (1 Bft)
30.07.2007 08:00 13.5 C 90 % 1018.3 hPa 0.0 l/m 1.9 km/h (1 Bft) W-NW 1.00 h 328 W/m 12.0 C 13.5 C 3.8 km/h (1 Bft)
30.07.2007 09:00 14.6 C 74 % 1018.5 hPa 0.0 l/m 2.0 km/h (1 Bft) W-NW 0.97 h 497 W/m 10.1 C 14.6 C 3.9 km/h (1 Bft)
30.07.2007 10:00 16.0 C 66 % 1018.6 hPa 0.0 l/m 2.5 km/h (1 Bft) W 1.00 h 661 W/m 9.6 C 16.0 C 4.8 km/h (1 Bft)
30.07.2007 11:00 17.4 C 59 % 1018.7 hPa 0.4 l/m 3.0 km/h (1 Bft) N-NW 0.97 h 781 W/m 9.3 C 17.4 C 5.6 km/h (1 Bft)
30.07.2007 12:00 17.9 C 59 % 1018.6 hPa 0.0 l/m 2.6 km/h (1 Bft) W 0.58 h 679 W/m 9.9 C 17.9 C 5.3 km/h (1 Bft)
30.07.2007 13:00 17.7 C 56 % 1018.7 hPa 0.0 l/m 2.4 km/h (1 Bft) SO 0.18 h 374 W/m 8.8 C 17.7 C 4.7 km/h (1 Bft)
30.07.2007 14:00 19.4 C 50 % 1018.5 hPa 0.0 l/m 4.3 km/h (1 Bft) W-NW 0.75 h 736 W/m 8.6 C 19.4 C 7.3 km/h (2 Bft)
30.07.2007 15:00 20.7 C 44 % 1018.3 hPa 0.0 l/m 5.6 km/h (1 Bft) W-NW 0.90 h 794 W/m 8.0 C 20.7 C 9.0 km/h (2 Bft)
30.07.2007 16:00 21.2 C 41 % 1018.2 hPa 0.0 l/m 5.2 km/h (1 Bft) W-NW 1.00 h 684 W/m 7.3 C 21.2 C 8.6 km/h (2 Bft)
30.07.2007 17:00 21.0 C 40 % 1018.1 hPa 0.0 l/m 5.9 km/h (2 Bft) W-NW 1.00 h 521 W/m 7.0 C 21.0 C 9.3 km/h (2 Bft)
30.07.2007 18:00 20.4 C 41 % 1017.9 hPa 0.0 l/m 8.1 km/h (2 Bft) W-NW 1.00 h 339 W/m 6.7 C 20.4 C 12.3 km/h (3 Bft)
30.07.2007 19:00 19.3 C 41 % 1018.1 hPa 0.0 l/m 6.8 km/h (2 Bft) W 0.53 h 132 W/m 5.7 C 19.3 C 10.1 km/h (2 Bft)
30.07.2007 20:00 18.0 C 48 % 1018.2 hPa 0.0 l/m 4.7 km/h (1 Bft) W 0.15 h 36 W/m 6.8 C 18.0 C 7.6 km/h (2 Bft)
30.07.2007 21:00 15.4 C 61 % 1018.8 hPa 0.0 l/m 0.4 km/h (0 Bft) SO 0.00 h 6 W/m 7.9 C 15.4 C 1.3 km/h (1 Bft)
30.07.2007 22:00 13.6 C 71 % 1019.4 hPa 0.0 l/m 0.5 km/h (0 Bft) SO 0.00 h 0 W/m 8.3 C 13.6 C 1.0 km/h (0 Bft)
30.07.2007 23:00 12.1 C 79 % 1019.5 hPa 0.0 l/m 3.0 km/h (1 Bft) O 0.00 h 0 W/m 8.5 C 12.1 C 4.5 km/h (1 Bft)
31.07.2007 00:00 10.8 C 84 % 1019.6 hPa 0.0 l/m 2.0 km/h (1 Bft) O-SO 0.00 h 0 W/m 8.2 C 10.8 C 3.2 km/h (1 Bft)
31.07.2007 01:00 10.1 C 86 % 1019.5 hPa 0.0 l/m 0.7 km/h (0 Bft) O-SO 0.00 h 0 W/m 7.9 C 10.1 C 1.6 km/h (1 Bft)
31.07.2007 02:00 9.4 C 90 % 1019.3 hPa 0.0 l/m 0.9 km/h (0 Bft) O-SO 0.00 h 0 W/m 7.8 C 9.4 C 2.0 km/h (1 Bft)
31.07.2007 03:00 8.9 C 91 % 1018.9 hPa 0.0 l/m 0.8 km/h (0 Bft) O-SO 0.00 h 0 W/m 7.5 C 8.9 C 1.7 km/h (1 Bft)
31.07.2007 04:00 8.6 C 92 % 1019.0 hPa 0.0 l/m 0.6 km/h (0 Bft) O-SO 0.00 h 0 W/m 7.4 C 8.6 C 1.4 km/h (1 Bft)
31.07.2007 05:00 8.0 C 94 % 1019.0 hPa 0.0 l/m 0.4 km/h (0 Bft) O-SO 0.00 h 0 W/m 7.2 C 8.0 C 1.0 km/h (0 Bft)
31.07.2007 06:00 7.8 C 95 % 1019.0 hPa 0.0 l/m 1.0 km/h (0 Bft) O-SO 0.00 h 15 W/m 7.1 C 7.8 C 1.8 km/h (1 Bft)
31.07.2007 07:00 8.8 C 92 % 1019.2 hPa 0.0 l/m 0.0 km/h (0 Bft) N 0.53 h 120 W/m 7.6 C 8.8 C 0.1 km/h (0 Bft)
31.07.2007 08:00 11.5 C 81 % 1019.2 hPa 0.0 l/m 0.6 km/h (0 Bft) NO 1.00 h 318 W/m 8.4 C 11.5 C 1.6 km/h (1 Bft)
31.07.2007 09:00 13.7 C 73 % 1019.3 hPa 0.0 l/m 1.1 km/h (1 Bft) NW 1.00 h 483 W/m 9.0 C 13.7 C 2.7 km/h (1 Bft)
31.07.2007 10:00 16.4 C 65 % 1018.9 hPa 0.0 l/m 2.8 km/h (1 Bft) NW 1.00 h 629 W/m 9.6 C 16.4 C 4.8 km/h (1 Bft)
31.07.2007 11:00 18.5 C 50 % 1018.6 hPa 0.0 l/m 4.9 km/h (1 Bft) O-SO 1.00 h 749 W/m 8.0 C 18.5 C 8.3 km/h (2 Bft)
31.07.2007 12:00 19.8 C 46 % 1018.4 hPa 0.0 l/m 3.2 km/h (1 Bft) O-SO 1.00 h 829 W/m 7.8 C 19.8 C 6.2 km/h (2 Bft)
31.07.2007 13:00 20.5 C 45 % 1018.2 hPa 0.0 l/m 2.2 km/h (1 Bft) W-SW 1.00 h 845 W/m 8.2 C 20.5 C 4.5 km/h (1 Bft)
31.07.2007 14:00 21.4 C 41 % 1017.8 hPa 0.0 l/m 3.1 km/h (1 Bft) O-SO 0.85 h 796 W/m 7.5 C 21.4 C 6.2 km/h (2 Bft)
31.07.2007 15:00 21.4 C 39 % 1017.6 hPa 0.0 l/m 4.2 km/h (1 Bft) O-SO 0.78 h 625 W/m 6.9 C 21.4 C 7.3 km/h (2 Bft)
31.07.2007 16:00 22.3 C 38 % 1017.2 hPa 0.0 l/m 4.3 km/h (1 Bft) N 1.00 h 639 W/m 7.2 C 22.3 C 7.5 km/h (2 Bft)
31.07.2007 17:00 22.0 C 38 % 1016.9 hPa 0.0 l/m 3.6 km/h (1 Bft) O-SO 1.00 h 492 W/m 7.1 C 22.0 C 6.5 km/h (2 Bft)
31.07.2007 18:00 21.8 C 39 % 1016.7 hPa 0.0 l/m 3.3 km/h (1 Bft) O-SO 1.00 h 329 W/m 7.1 C 21.8 C 5.8 km/h (2 Bft)
31.07.2007 19:00 21.0 C 40 % 1016.3 hPa 0.0 l/m 3.6 km/h (1 Bft) O-SO 0.72 h 160 W/m 7.0 C 21.0 C 5.8 km/h (2 Bft)
31.07.2007 20:00 19.2 C 49 % 1016.5 hPa 0.0 l/m 3.8 km/h (1 Bft) O-SO 0.00 h 32 W/m 8.4 C 19.2 C 5.5 km/h (1 Bft)
31.07.2007 21:00 16.4 C 62 % 1016.8 hPa 0.0 l/m 1.2 km/h (1 Bft) O-SO 0.00 h 5 W/m 9.2 C 16.4 C 1.7 km/h (1 Bft)
31.07.2007 22:00 15.4 C 66 % 1017.1 hPa 0.0 l/m 2.4 km/h (1 Bft) N-NO 0.00 h 0 W/m 9.1 C 15.4 C 5.7 km/h (1 Bft)
31.07.2007 23:00 15.1 C 65 % 1017.3 hPa 0.0 l/m 3.6 km/h (1 Bft) NO 0.00 h 0 W/m 8.5 C 15.1 C 7.9 km/h (2 Bft)
01.08.2007 00:00 14.2 C 67 % 1017.5 hPa 0.0 l/m 2.3 km/h (1 Bft) O-NO 0.00 h 0 W/m 8.1 C 14.2 C 5.1 km/h (1 Bft)
01.08.2007 01:00 13.5 C 66 % 1017.4 hPa 0.0 l/m 2.4 km/h (1 Bft) N-NO 0.00 h 0 W/m 7.3 C 13.5 C 5.3 km/h (1 Bft)
01.08.2007 02:00 12.8 C 66 % 1017.1 hPa 0.0 l/m 1.5 km/h (1 Bft) N-NO 0.00 h 0 W/m 6.5 C 12.8 C 3.8 km/h (1 Bft)
01.08.2007 03:00 11.8 C 71 % 1017.0 hPa 0.0 l/m 0.6 km/h (0 Bft) O 0.00 h 0 W/m 6.7 C 11.8 C 1.9 km/h (1 Bft)
01.08.2007 04:00 10.9 C 76 % 1017.1 hPa 0.0 l/m 1.4 km/h (1 Bft) O-NO 0.00 h 0 W/m 6.9 C 10.9 C 2.8 km/h (1 Bft)
01.08.2007 05:00 10.7 C 77 % 1017.1 hPa 0.0 l/m 1.6 km/h (1 Bft) O-SO 0.00 h 0 W/m 6.7 C 10.7 C 3.1 km/h (1 Bft)
01.08.2007 06:00 10.1 C 80 % 1017.1 hPa 0.0 l/m 0.9 km/h (0 Bft) O 0.03 h 15 W/m 6.8 C 10.1 C 1.9 km/h (1 Bft)
01.08.2007 07:00 10.8 C 81 % 1017.0 hPa 0.0 l/m 0.3 km/h (0 Bft) O-SO 0.52 h 110 W/m 7.7 C 10.8 C 0.7 km/h (0 Bft)
01.08.2007 08:00 13.8 C 68 % 1016.9 hPa 0.0 l/m 1.5 km/h (1 Bft) N 1.00 h 306 W/m 7.9 C 13.8 C 3.4 km/h (1 Bft)
01.08.2007 09:00 15.3 C 62 % 1016.8 hPa 0.0 l/m 3.0 km/h (1 Bft) O 1.00 h 471 W/m 8.2 C 15.3 C 6.4 km/h (2 Bft)
01.08.2007 10:00 17.0 C 61 % 1016.6 hPa 0.0 l/m 2.5 km/h (1 Bft) O-SO 1.00 h 619 W/m 9.4 C 17.0 C 5.1 km/h (1 Bft)
01.08.2007 11:00 19.1 C 57 % 1016.2 hPa 0.0 l/m 2.5 km/h (1 Bft) SO 1.00 h 735 W/m 10.5 C 19.1 C 5.0 km/h (1 Bft)
01.08.2007 12:00 20.6 C 52 % 1015.8 hPa 0.0 l/m 6.8 km/h (2 Bft) O-SO 1.00 h 808 W/m 10.5 C 20.6 C 11.3 km/h (2 Bft)
01.08.2007 13:00 21.7 C 49 % 1015.4 hPa 0.0 l/m 6.0 km/h (2 Bft) O-SO 1.00 h 834 W/m 10.6 C 21.7 C 9.6 km/h (2 Bft)
01.08.2007 14:00 23.1 C 50 % 1014.9 hPa 0.0 l/m 2.8 km/h (1 Bft) O-SO 1.00 h 806 W/m 12.1 C 23.1 C 5.1 km/h (1 Bft)
01.08.2007 15:00 23.8 C 48 % 1014.2 hPa 0.0 l/m 3.5 km/h (1 Bft) O-SO 1.00 h 743 W/m 12.2 C 23.8 C 5.8 km/h (2 Bft)
01.08.2007 16:00 24.7 C 47 % 1013.5 hPa 0.0 l/m 3.2 km/h (1 Bft) O-SO 1.00 h 616 W/m 12.6 C 24.7 C 5.7 km/h (1 Bft)
01.08.2007 17:00 25.1 C 44 % 1013.0 hPa 0.0 l/m 3.1 km/h (1 Bft) O 1.00 h 502 W/m 11.9 C 25.1 C 5.9 km/h (2 Bft)
01.08.2007 18:00 24.9 C 43 % 1012.8 hPa 0.0 l/m 2.3 km/h (1 Bft) O 1.00 h 327 W/m 11.5 C 24.9 C 4.6 km/h (1 Bft)
01.08.2007 19:00 24.1 C 48 % 1012.4 hPa 0.0 l/m 1.3 km/h (1 Bft) O-SO 0.60 h 146 W/m 12.2 C 24.1 C 2.8 km/h (1 Bft)
01.08.2007 20:00 22.1 C 56 % 1012.3 hPa 0.0 l/m 2.0 km/h (1 Bft) O-SO 0.00 h 29 W/m 12.9 C 22.1 C 3.5 km/h (1 Bft)
01.08.2007 21:00 19.4 C 65 % 1012.5 hPa 0.0 l/m 0.4 km/h (0 Bft) O-SO 0.00 h 0 W/m 12.5 C 19.4 C 1.0 km/h (0 Bft)
01.08.2007 22:00 17.7 C 73 % 1012.6 hPa 0.0 l/m 0.7 km/h (0 Bft) O-SO 0.00 h 0 W/m 12.8 C 17.7 C 1.3 km/h (1 Bft)
01.08.2007 23:00 16.3 C 78 % 1012.4 hPa 0.0 l/m 0.8 km/h (0 Bft) O-SO 0.00 h 0 W/m 12.5 C 16.3 C 1.9 km/h (1 Bft)
02.08.2007 00:00 15.5 C 86 % 1012.2 hPa 0.0 l/m 1.0 km/h (0 Bft) O-SO 0.00 h 0 W/m 13.2 C 15.5 C 1.7 km/h (1 Bft)
02.08.2007 01:00 14.8 C 89 % 1011.7 hPa 0.0 l/m 0.2 km/h (0 Bft) O-SO 0.00 h 0 W/m 12.9 C 14.8 C 0.5 km/h (0 Bft)
02.08.2007 02:00 14.2 C 91 % 1011.6 hPa 0.0 l/m 0.7 km/h (0 Bft) O-SO 0.00 h 0 W/m 12.7 C 14.2 C 1.7 km/h (1 Bft)
02.08.2007 03:00 14.3 C 91 % 1012.7 hPa 0.0 l/m 0.8 km/h (0 Bft) O-SO 0.00 h 0 W/m 12.7 C 14.3 C 1.8 km/h (1 Bft)
02.08.2007 04:00 16.2 C 81 % 1013.6 hPa 0.0 l/m 6.7 km/h (2 Bft) W 0.00 h 0 W/m 12.9 C 16.2 C 11.0 km/h (2 Bft)
02.08.2007 05:00 19.9 C 66 % 1014.4 hPa 0.0 l/m 12.4 km/h (3 Bft) W 0.00 h 0 W/m 13.2 C 19.9 C 19.8 km/h (3 Bft)
02.08.2007 06:00 18.2 C 78 % 1015.6 hPa 0.8 l/m 9.4 km/h (2 Bft) W 0.00 h 6 W/m 14.2 C 18.2 C 14.9 km/h (3 Bft)
02.08.2007 07:00 16.4 C 92 % 1014.4 hPa 0.6 l/m 3.8 km/h (1 Bft) O-SO 0.00 h 29 W/m 15.1 C 16.4 C 6.3 km/h (2 Bft)
02.08.2007 08:00 16.9 C 95 % 1013.3 hPa 0.2 l/m 0.4 km/h (0 Bft) NO 0.00 h 129 W/m 16.1 C 16.9 C 1.3 km/h (1 Bft)
02.08.2007 09:00 17.3 C 93 % 1013.6 hPa 0.0 l/m 2.1 km/h (1 Bft) W-NW 0.00 h 96 W/m 16.2 C 17.3 C 4.2 km/h (1 Bft)
02.08.2007 10:00 17.7 C 91 % 1013.6 hPa 0.0 l/m 3.8 km/h (1 Bft) SO 0.00 h 70 W/m 16.3 C 17.7 C 6.0 km/h (2 Bft)
02.08.2007 11:00 18.3 C 91 % 1013.4 hPa 0.0 l/m 3.0 km/h (1 Bft) SO 0.00 h 212 W/m 16.7 C 18.3 C 5.1 km/h (1 Bft)
02.08.2007 12:00 19.6 C 84 % 1013.4 hPa 0.0 l/m 1.2 km/h (1 Bft) S 0.00 h 203 W/m 16.8 C 19.6 C 3.4 km/h (1 Bft)
02.08.2007 13:00 19.1 C 87 % 1014.1 hPa 0.0 l/m 2.4 km/h (1 Bft) SW 0.00 h 175 W/m 16.9 C 19.1 C 5.7 km/h (1 Bft)
02.08.2007 14:00 19.1 C 86 % 1014.4 hPa 0.0 l/m 4.4 km/h (1 Bft) S-SO 0.00 h 134 W/m 16.6 C 19.1 C 9.3 km/h (2 Bft)
02.08.2007 15:00 20.2 C 82 % 1014.7 hPa 0.0 l/m 4.4 km/h (1 Bft) W-SW 0.43 h 410 W/m 16.9 C 20.2 C 9.2 km/h (2 Bft)
02.08.2007 16:00 21.4 C 77 % 1013.7 hPa 0.0 l/m 4.4 km/h (1 Bft) SW 0.32 h 376 W/m 17.1 C 21.4 C 9.9 km/h (2 Bft)
02.08.2007 17:00 21.4 C 74 % 1013.5 hPa 0.0 l/m 4.1 km/h (1 Bft) S-SW 0.50 h 321 W/m 16.5 C 21.4 C 8.4 km/h (2 Bft)
02.08.2007 18:00 21.1 C 73 % 1014.0 hPa 0.0 l/m 4.5 km/h (1 Bft) S-SO 0.07 h 179 W/m 16.1 C 21.1 C 8.9 km/h (2 Bft)
02.08.2007 19:00 20.7 C 75 % 1014.0 hPa 0.0 l/m 4.3 km/h (1 Bft) S-SO 0.22 h 135 W/m 16.2 C 20.7 C 9.3 km/h (2 Bft)
02.08.2007 20:00 19.9 C 78 % 1014.6 hPa 0.0 l/m 1.6 km/h (1 Bft) SO 0.00 h 8 W/m 15.9 C 19.9 C 3.0 km/h (1 Bft)
02.08.2007 21:00 17.8 C 90 % 1015.1 hPa 0.0 l/m 0.5 km/h (0 Bft) N 0.00 h 0 W/m 16.0 C 17.8 C 1.1 km/h (1 Bft)
02.08.2007 22:00 17.1 C 95 % 1015.7 hPa 0.0 l/m 0.0 km/h (0 Bft) N-NO 0.00 h 0 W/m 16.3 C 17.1 C 0.3 km/h (0 Bft)
02.08.2007 23:00 16.7 C 95 % 1016.3 hPa 0.0 l/m 0.7 km/h (0 Bft) O 0.00 h 0 W/m 15.9 C 16.7 C 1.9 km/h (1 Bft)
03.08.2007 00:00 16.8 C 90 % 1016.6 hPa 0.0 l/m 1.3 km/h (1 Bft) SO 0.00 h 0 W/m 15.1 C 16.8 C 2.8 km/h (1 Bft)
03.08.2007 01:00 16.7 C 89 % 1016.7 hPa 0.0 l/m 1.1 km/h (1 Bft) S-SO 0.00 h 0 W/m 14.9 C 16.7 C 1.9 km/h (1 Bft)
03.08.2007 02:00 16.5 C 88 % 1017.1 hPa 0.0 l/m 0.6 km/h (0 Bft) SO 0.00 h 0 W/m 14.4 C 16.5 C 1.7 km/h (1 Bft)
03.08.2007 03:00 16.6 C 86 % 1017.3 hPa 0.0 l/m 2.3 km/h (1 Bft) S 0.00 h 0 W/m 14.3 C 16.6 C 4.7 km/h (1 Bft)
03.08.2007 04:00 16.2 C 83 % 1017.9 hPa 0.2 l/m 10.6 km/h (2 Bft) W-NW 0.00 h 0 W/m 13.3 C 16.2 C 15.6 km/h (3 Bft)
03.08.2007 05:00 14.5 C 92 % 1018.7 hPa 0.6 l/m 8.7 km/h (2 Bft) W 0.00 h 0 W/m 13.2 C 14.5 C 13.8 km/h (3 Bft)
03.08.2007 06:00 14.2 C 94 % 1019.5 hPa 0.4 l/m 2.2 km/h (1 Bft) O 0.00 h 9 W/m 13.3 C 14.2 C 4.3 km/h (1 Bft)
03.08.2007 07:00 14.3 C 94 % 1020.2 hPa 0.0 l/m 1.9 km/h (1 Bft) W-NW 0.00 h 26 W/m 13.4 C 14.3 C 3.9 km/h (1 Bft)
03.08.2007 08:00 14.4 C 94 % 1020.9 hPa 0.0 l/m 1.2 km/h (1 Bft) W 0.00 h 48 W/m 13.4 C 14.4 C 3.0 km/h (1 Bft)
03.08.2007 09:00 15.2 C 92 % 1021.3 hPa 0.0 l/m 2.8 km/h (1 Bft) W 0.12 h 202 W/m 13.9 C 15.2 C 5.0 km/h (1 Bft)
03.08.2007 10:00 16.7 C 84 % 1021.6 hPa 0.0 l/m 7.0 km/h (2 Bft) W 0.27 h 358 W/m 13.9 C 16.7 C 11.3 km/h (2 Bft)
03.08.2007 11:00 17.9 C 79 % 1022.0 hPa 0.0 l/m 6.6 km/h (2 Bft) W 0.38 h 477 W/m 14.1 C 17.9 C 10.9 km/h (2 Bft)
03.08.2007 12:00 18.9 C 73 % 1022.1 hPa 0.0 l/m 6.5 km/h (2 Bft) W 0.67 h 569 W/m 14.0 C 18.9 C 10.2 km/h (2 Bft)
03.08.2007 13:00 20.5 C 66 % 1022.2 hPa 0.0 l/m 6.1 km/h (2 Bft) W-SW 0.90 h 815 W/m 13.8 C 20.5 C 9.3 km/h (2 Bft)
03.08.2007 14:00 19.6 C 70 % 1022.2 hPa 0.0 l/m 4.6 km/h (1 Bft) N-NW 0.00 h 321 W/m 14.0 C 19.6 C 7.3 km/h (2 Bft)
03.08.2007 15:00 18.9 C 77 % 1022.7 hPa 0.0 l/m 5.6 km/h (1 Bft) N-NW 0.00 h 273 W/m 14.8 C 18.9 C 8.9 km/h (2 Bft)
03.08.2007 16:00 19.0 C 73 % 1022.8 hPa 0.0 l/m 3.8 km/h (1 Bft) N-NW 0.00 h 209 W/m 14.0 C 19.0 C 5.8 km/h (2 Bft)
03.08.2007 17:00 20.9 C 63 % 1022.7 hPa 0.0 l/m 3.9 km/h (1 Bft) N-NW 0.60 h 405 W/m 13.6 C 20.9 C 6.1 km/h (2 Bft)
03.08.2007 18:00 20.9 C 60 % 1022.7 hPa 0.0 l/m 3.8 km/h (1 Bft) W-NW 0.45 h 265 W/m 12.9 C 20.9 C 5.8 km/h (2 Bft)
03.08.2007 19:00 19.9 C 69 % 1022.8 hPa 0.0 l/m 2.9 km/h (1 Bft) NW 0.07 h 87 W/m 13.9 C 19.9 C 4.9 km/h (1 Bft)
03.08.2007 20:00 17.9 C 81 % 1023.1 hPa 0.0 l/m 0.5 km/h (0 Bft) NW 0.00 h 18 W/m 14.5 C 17.9 C 1.6 km/h (1 Bft)
03.08.2007 21:00 16.2 C 87 % 1023.5 hPa 0.0 l/m 0.3 km/h (0 Bft) O-NO 0.00 h 0 W/m 13.9 C 16.2 C 1.1 km/h (0 Bft)
03.08.2007 22:00 15.1 C 89 % 1024.0 hPa 0.0 l/m 0.5 km/h (0 Bft) O-NO 0.00 h 0 W/m 13.3 C 15.1 C 1.2 km/h (1 Bft)
03.08.2007 23:00 14.3 C 93 % 1024.4 hPa 0.0 l/m 1.1 km/h (1 Bft) O 0.00 h 0 W/m 13.2 C 14.3 C 2.1 km/h (1 Bft)
04.08.2007 00:00 13.8 C 94 % 1024.7 hPa 0.0 l/m 0.6 km/h (0 Bft) O 0.00 h 0 W/m 12.9 C 13.8 C 1.6 km/h (1 Bft)
04.08.2007 01:00 13.5 C 95 % 1024.4 hPa 0.0 l/m 0.3 km/h (0 Bft) O 0.00 h 0 W/m 12.8 C 13.5 C 1.2 km/h (1 Bft)
04.08.2007 02:00 13.0 C 97 % 1024.2 hPa 0.0 l/m 0.8 km/h (0 Bft) O 0.00 h 0 W/m 12.4 C 13.0 C 1.6 km/h (1 Bft)
04.08.2007 03:00 12.6 C 98 % 1024.3 hPa 0.2 l/m 0.3 km/h (0 Bft) O 0.00 h 0 W/m 12.2 C 12.6 C 0.9 km/h (0 Bft)
04.08.2007 04:00 12.7 C 99 % 1024.2 hPa 0.0 l/m 0.2 km/h (0 Bft) O 0.00 h 0 W/m 12.5 C 12.7 C 0.7 km/h (0 Bft)
04.08.2007 05:00 12.3 C 100 % 1024.1 hPa 0.0 l/m 0.6 km/h (0 Bft) S-SW 0.00 h 0 W/m 12.2 C 12.3 C 1.8 km/h (1 Bft)
04.08.2007 06:00 12.5 C 100 % 1024.3 hPa 0.0 l/m 0.0 km/h (0 Bft) N 0.00 h 14 W/m 12.5 C 12.5 C 0.2 km/h (0 Bft)
04.08.2007 07:00 12.9 C 100 % 1024.7 hPa 0.0 l/m 0.4 km/h (0 Bft) S-SW 0.00 h 46 W/m 12.9 C 12.9 C 1.1 km/h (1 Bft)
04.08.2007 08:00 13.6 C 100 % 1024.9 hPa 0.0 l/m 1.0 km/h (0 Bft) S-SW 0.00 h 88 W/m 13.6 C 13.6 C 2.3 km/h (1 Bft)
04.08.2007 09:00 15.0 C 97 % 1025.1 hPa 0.0 l/m 3.8 km/h (1 Bft) O-SO 0.18 h 292 W/m 14.6 C 15.0 C 6.4 km/h (2 Bft)
04.08.2007 10:00 17.6 C 83 % 1024.9 hPa 0.0 l/m 5.0 km/h (1 Bft) O-SO 0.92 h 581 W/m 14.6 C 17.6 C 7.7 km/h (2 Bft)
04.08.2007 11:00 20.6 C 73 % 1024.5 hPa 0.0 l/m 2.0 km/h (1 Bft) W 1.00 h 705 W/m 15.5 C 20.6 C 4.4 km/h (1 Bft)
04.08.2007 12:00 22.4 C 63 % 1024.0 hPa 0.0 l/m 3.4 km/h (1 Bft) O-SO 1.00 h 785 W/m 15.0 C 22.4 C 6.3 km/h (2 Bft)
04.08.2007 13:00 23.8 C 56 % 1023.7 hPa 0.0 l/m 5.3 km/h (1 Bft) O-SO 1.00 h 815 W/m 14.4 C 23.8 C 9.1 km/h (2 Bft)
04.08.2007 14:00 24.7 C 48 % 1023.1 hPa 0.0 l/m 5.7 km/h (1 Bft) O-SO 1.00 h 796 W/m 12.8 C 24.7 C 10.3 km/h (2 Bft)
04.08.2007 15:00 25.3 C 46 % 1022.7 hPa 0.0 l/m 7.9 km/h (2 Bft) O-SO 1.00 h 730 W/m 12.7 C 25.3 C 12.5 km/h (3 Bft)
04.08.2007 16:00 25.6 C 44 % 1022.0 hPa 0.0 l/m 5.2 km/h (1 Bft) O-SO 1.00 h 620 W/m 12.4 C 25.6 C 8.5 km/h (2 Bft)
04.08.2007 17:00 25.6 C 42 % 1021.5 hPa 0.0 l/m 6.5 km/h (2 Bft) O-SO 1.00 h 478 W/m 11.8 C 25.6 C 10.1 km/h (2 Bft)
04.08.2007 18:00 25.2 C 42 % 1021.1 hPa 0.0 l/m 6.7 km/h (2 Bft) O-SO 1.00 h 316 W/m 11.5 C 25.2 C 10.3 km/h (2 Bft)
04.08.2007 19:00 24.4 C 44 % 1020.9 hPa 0.0 l/m 3.4 km/h (1 Bft) O-SO 0.73 h 142 W/m 11.5 C 24.4 C 5.9 km/h (2 Bft)
04.08.2007 20:00 22.6 C 53 % 1021.0 hPa 0.0 l/m 1.6 km/h (1 Bft) O-SO 0.00 h 28 W/m 12.6 C 22.6 C 2.7 km/h (1 Bft)
04.08.2007 21:00 20.0 C 66 % 1021.1 hPa 0.0 l/m 0.0 km/h (0 Bft) N 0.00 h 0 W/m 13.3 C 20.0 C 0.2 km/h (0 Bft)
04.08.2007 22:00 18.0 C 74 % 1021.0 hPa 0.0 l/m 0.4 km/h (0 Bft) O-SO 0.00 h 0 W/m 13.2 C 18.0 C 1.3 km/h (1 Bft)
04.08.2007 23:00 16.6 C 80 % 1021.0 hPa 0.0 l/m 1.0 km/h (0 Bft) O-SO 0.00 h 0 W/m 13.1 C 16.6 C 1.8 km/h (1 Bft)
05.08.2007 00:00 15.6 C 86 % 1021.0 hPa 0.0 l/m 0.0 km/h (0 Bft) N 0.00 h 0 W/m 13.4 C 15.6 C 0.2 km/h (0 Bft)
05.08.2007 01:00 15.4 C 88 % 1020.6 hPa 0.0 l/m 0.1 km/h (0 Bft) O-SO 0.00 h 0 W/m 13.3 C 15.4 C 0.3 km/h (0 Bft)
05.08.2007 02:00 14.7 C 91 % 1020.4 hPa 0.0 l/m 0.0 km/h (0 Bft) O-SO 0.00 h 0 W/m 13.2 C 14.7 C 0.3 km/h (0 Bft)
05.08.2007 03:00 14.0 C 93 % 1019.9 hPa 0.0 l/m 0.6 km/h (0 Bft) O-SO 0.00 h 0 W/m 12.9 C 14.0 C 1.5 km/h (1 Bft)
05.08.2007 04:00 13.2 C 95 % 1019.5 hPa 0.0 l/m 3.1 km/h (1 Bft) O-SO 0.00 h 0 W/m 12.4 C 13.2 C 4.1 km/h (1 Bft)
05.08.2007 05:00 13.0 C 94 % 1018.9 hPa 0.0 l/m 1.4 km/h (1 Bft) O 0.00 h 0 W/m 12.0 C 13.0 C 2.1 km/h (1 Bft)
05.08.2007 06:00 12.7 C 95 % 1018.7 hPa 0.0 l/m 0.0 km/h (0 Bft) O 0.02 h 14 W/m 11.9 C 12.7 C 0.2 km/h (0 Bft)
05.08.2007 07:00 13.3 C 95 % 1018.6 hPa 0.0 l/m 0.0 km/h (0 Bft) N 0.42 h 95 W/m 12.5 C 13.3 C 0.0 km/h (0 Bft)
05.08.2007 08:00 16.2 C 84 % 1018.3 hPa 0.0 l/m 0.1 km/h (0 Bft) O 1.00 h 292 W/m 13.5 C 16.2 C 0.4 km/h (0 Bft)
05.08.2007 09:00 19.3 C 71 % 1017.7 hPa 0.2 l/m 1.8 km/h (1 Bft) O-SO 1.00 h 454 W/m 13.8 C 19.3 C 3.8 km/h (1 Bft)
05.08.2007 10:00 21.5 C 64 % 1017.3 hPa 0.0 l/m 1.5 km/h (1 Bft) SO 1.00 h 603 W/m 14.3 C 21.5 C 3.8 km/h (1 Bft)
05.08.2007 11:00 23.2 C 61 % 1016.8 hPa 0.0 l/m 2.8 km/h (1 Bft) O-SO 1.00 h 720 W/m 15.2 C 23.2 C 5.4 km/h (1 Bft)
05.08.2007 12:00 24.8 C 54 % 1016.2 hPa 0.0 l/m 6.8 km/h (2 Bft) O-SO 1.00 h 800 W/m 14.8 C 24.8 C 11.1 km/h (2 Bft)
05.08.2007 13:00 26.1 C 48 % 1015.5 hPa 0.0 l/m 6.5 km/h (2 Bft) O-SO 1.00 h 828 W/m 14.1 C 26.1 C 10.5 km/h (2 Bft)
05.08.2007 14:00 27.1 C 42 % 1015.0 hPa 0.0 l/m 5.5 km/h (1 Bft) O-SO 1.00 h 804 W/m 12.8 C 27.1 C 9.3 km/h (2 Bft)
05.08.2007 15:00 27.7 C 38 % 1014.5 hPa 0.0 l/m 4.9 km/h (1 Bft) O-SO 1.00 h 740 W/m 12.1 C 27.7 C 8.8 km/h (2 Bft)
05.08.2007 16:00 28.2 C 36 % 1013.8 hPa 0.0 l/m 7.0 km/h (2 Bft) O-SO 1.00 h 637 W/m 11.7 C 28.2 C 11.1 km/h (2 Bft)
05.08.2007 17:00 28.3 C 38 % 1013.2 hPa 0.0 l/m 4.4 km/h (1 Bft) O-SO 1.00 h 487 W/m 12.6 C 28.3 C 7.3 km/h (2 Bft)
05.08.2007 18:00 28.0 C 41 % 1012.7 hPa 0.0 l/m 4.5 km/h (1 Bft) O-SO 1.00 h 349 W/m 13.6 C 28.0 C 7.1 km/h (2 Bft)
05.08.2007 19:00 27.0 C 45 % 1012.5 hPa 0.0 l/m 1.8 km/h (1 Bft) O-SO 1.00 h 207 W/m 14.1 C 27.0 C 3.6 km/h (1 Bft)
05.08.2007 20:00 24.9 C 55 % 1012.1 hPa 0.0 l/m 1.0 km/h (0 Bft) N 0.77 h 197 W/m 15.0 C 24.9 C 0.7 km/h (0 Bft)
05.08.2007 21:00 21.8 C 65 % 1012.2 hPa 0.0 l/m 0.6 km/h (0 Bft) SO 0.00 h 0 W/m 15.0 C 21.8 C 1.2 km/h (1 Bft)
05.08.2007 22:00 19.7 C 75 % 1012.2 hPa 0.0 l/m 0.2 km/h (0 Bft) O 0.00 h 0 W/m 15.2 C 19.7 C 0.4 km/h (0 Bft)
05.08.2007 23:00 18.3 C 81 % 1012.2 hPa 0.0 l/m 0.1 km/h (0 Bft) O 0.00 h 0 W/m 14.9 C 18.3 C 0.4 km/h (0 Bft)
Min-Datum _ 31.07.07 30.07.07 02.08.07 - 30.07.07 - - - 30.07.07 31.07.07 30.07.07
_ Min-Zeit 06:06 17:26 01:30 - 00:26 - - - 17:26 06:06 00:26
Minimum _ 7.7 C 32 % 1011.5 hPa - 0.0 km/h (0 Bft) - - - 3.5 C 7.7 C 0.0 km/h (0 Bft)
Max-Datum _ 05.08.07 04.08.07 04.08.07 30.07.07 02.08.07 - 30.07.07 03.08.07 02.08.07 05.08.07 02.08.07
_ Max-Zeit 17:18 05:07 09:00 02:30 05:10 - 07:26 13:52 16:37 17:18 06:21
Maximum _ 28.7 C 100 % 1025.3 hPa 2.0 l/m 23.2 km/h
W (4 Bft)
- 0.02 h 1174 W/m 18.2 C 28.7 C 40.0 km/h
W (6 Bft)
Durchschnitt _ 17.6 C 72 % 1017.9 hPa #9.6 l/m 2.8 km/h (1 Bft) O-SO #62:33 h 384 W/m 11.9 C 17.6 C 5.0 km/h (1 Bft)
© Kaiko 2007